sensor_id;sensor_type;location;lat;lon;timestamp;pressure;altitude;pressure_sealevel;temperature;humidity
25510;BME280;13413;52.336;21.200;2023-01-29T00:02:39;101373.67;;;3.36;57.44
25510;BME280;13413;52.336;21.200;2023-01-29T00:05:35;101373.19;;;3.33;57.28
25510;BME280;13413;52.336;21.200;2023-01-29T00:08:29;101374.16;;;3.32;57.59
25510;BME280;13413;52.336;21.200;2023-01-29T00:11:23;101358.64;;;3.26;57.34
25510;BME280;13413;52.336;21.200;2023-01-29T00:14:17;101358.64;;;3.20;57.38
25510;BME280;13413;52.336;21.200;2023-01-29T00:17:11;101345.98;;;3.16;57.37
25510;BME280;13413;52.336;21.200;2023-01-29T00:20:07;101344.11;;;3.11;57.43
25510;BME280;13413;52.336;21.200;2023-01-29T00:23:01;101340.80;;;3.13;57.56
25510;BME280;13413;52.336;21.200;2023-01-29T00:25:58;101340.33;;;3.15;57.55
25510;BME280;13413;52.336;21.200;2023-01-29T00:28:52;101342.16;;;3.06;57.40
25510;BME280;13413;52.336;21.200;2023-01-29T00:31:46;101332.08;;;3.00;57.48
25510;BME280;13413;52.336;21.200;2023-01-29T00:34:40;101332.81;;;3.02;57.52
25510;BME280;13413;52.336;21.200;2023-01-29T00:37:34;101334.37;;;3.03;57.60
25510;BME280;13413;52.336;21.200;2023-01-29T00:40:28;101336.17;;;3.02;57.65
25510;BME280;13413;52.336;21.200;2023-01-29T00:43:22;101332.78;;;2.98;57.59
25510;BME280;13413;52.336;21.200;2023-01-29T00:46:17;101332.55;;;2.99;57.80
25510;BME280;13413;52.336;21.200;2023-01-29T00:49:11;101328.48;;;3.02;57.75
25510;BME280;13413;52.336;21.200;2023-01-29T00:52:05;101323.91;;;3.02;57.67
25510;BME280;13413;52.336;21.200;2023-01-29T00:55:00;101323.59;;;3.02;57.48
25510;BME280;13413;52.336;21.200;2023-01-29T00:57:52;101320.29;;;3.01;57.69
25510;BME280;13413;52.336;21.200;2023-01-29T01:00:46;101305.17;;;3.00;57.40
25510;BME280;13413;52.336;21.200;2023-01-29T01:03:40;101301.28;;;2.98;57.73
25510;BME280;13413;52.336;21.200;2023-01-29T01:06:35;101302.52;;;2.93;57.82
25510;BME280;13413;52.336;21.200;2023-01-29T01:09:29;101292.63;;;2.98;57.92
25510;BME280;13413;52.336;21.200;2023-01-29T01:12:23;101290.75;;;2.94;57.65
25510;BME280;13413;52.336;21.200;2023-01-29T01:15:18;101282.77;;;2.88;57.49
25510;BME280;13413;52.336;21.200;2023-01-29T01:18:11;101279.94;;;2.86;57.80
25510;BME280;13413;52.336;21.200;2023-01-29T01:21:06;101277.31;;;2.87;57.71
25510;BME280;13413;52.336;21.200;2023-01-29T01:23:59;101277.89;;;2.85;57.90
25510;BME280;13413;52.336;21.200;2023-01-29T01:26:52;101279.67;;;2.85;57.51
25510;BME280;13413;52.336;21.200;2023-01-29T01:29:47;101274.87;;;2.81;57.35
25510;BME280;13413;52.336;21.200;2023-01-29T01:32:40;101271.52;;;2.87;57.69
25510;BME280;13413;52.336;21.200;2023-01-29T01:41:37;101273.07;;;2.90;57.57
25510;BME280;13413;52.336;21.200;2023-01-29T01:44:52;101275.68;;;2.95;57.68
25510;BME280;13413;52.336;21.200;2023-01-29T01:47:50;101277.77;;;2.97;57.43
25510;BME280;13413;52.336;21.200;2023-01-29T01:50:47;101283.60;;;3.01;57.52
25510;BME280;13413;52.336;21.200;2023-01-29T01:53:46;101280.34;;;3.01;57.41
25510;BME280;13413;52.336;21.200;2023-01-29T01:56:46;101281.70;;;2.99;57.42
25510;BME280;13413;52.336;21.200;2023-01-29T01:59:45;101280.02;;;2.95;57.14
25510;BME280;13413;52.336;21.200;2023-01-29T02:02:45;101280.11;;;2.89;57.24
25510;BME280;13413;52.336;21.200;2023-01-29T02:05:39;101294.59;;;2.89;57.40
25510;BME280;13413;52.336;21.200;2023-01-29T02:08:38;101283.42;;;2.89;57.31
25510;BME280;13413;52.336;21.200;2023-01-29T02:11:35;101283.12;;;2.83;57.29
25510;BME280;13413;52.336;21.200;2023-01-29T02:14:29;101278.77;;;2.83;57.34
25510;BME280;13413;52.336;21.200;2023-01-29T02:17:26;101273.30;;;2.84;57.26
25510;BME280;13413;52.336;21.200;2023-01-29T02:20:24;101271.21;;;2.86;57.38
25510;BME280;13413;52.336;21.200;2023-01-29T02:26:50;101270.94;;;2.90;57.48
25510;BME280;13413;52.336;21.200;2023-01-29T02:29:53;101267.85;;;2.89;57.51
25510;BME280;13413;52.336;21.200;2023-01-29T02:32:54;101268.95;;;2.91;57.67
25510;BME280;13413;52.336;21.200;2023-01-29T02:35:57;101258.24;;;2.89;57.36
25510;BME280;13413;52.336;21.200;2023-01-29T02:38:58;101253.83;;;2.85;57.43
25510;BME280;13413;52.336;21.200;2023-01-29T02:41:59;101247.80;;;2.84;57.52
25510;BME280;13413;52.336;21.200;2023-01-29T02:44:57;101246.17;;;2.84;57.48
25510;BME280;13413;52.336;21.200;2023-01-29T02:47:57;101250.84;;;2.83;57.38
25510;BME280;13413;52.336;21.200;2023-01-29T02:50:57;101252.42;;;2.80;57.40
25510;BME280;13413;52.336;21.200;2023-01-29T02:54:00;101245.67;;;2.81;57.34
25510;BME280;13413;52.336;21.200;2023-01-29T02:56:57;101256.20;;;2.83;57.46
25510;BME280;13413;52.336;21.200;2023-01-29T02:59:56;101254.69;;;2.85;57.25
25510;BME280;13413;52.336;21.200;2023-01-29T03:02:55;101243.71;;;2.87;57.67
25510;BME280;13413;52.336;21.200;2023-01-29T03:05:57;101244.45;;;2.89;57.44
25510;BME280;13413;52.336;21.200;2023-01-29T03:08:55;101231.06;;;2.91;57.42
25510;BME280;13413;52.336;21.200;2023-01-29T03:11:53;101236.23;;;2.87;57.17
25510;BME280;13413;52.336;21.200;2023-01-29T03:14:51;101231.59;;;2.86;57.45
25510;BME280;13413;52.336;21.200;2023-01-29T03:17:49;101232.23;;;2.81;57.11
25510;BME280;13413;52.336;21.200;2023-01-29T03:20:48;101233.58;;;2.77;56.96
25510;BME280;13413;52.336;21.200;2023-01-29T03:23:44;101231.86;;;2.79;57.33
25510;BME280;13413;52.336;21.200;2023-01-29T03:26:39;101228.48;;;2.83;57.29
25510;BME280;13413;52.336;21.200;2023-01-29T03:29:35;101223.45;;;2.82;57.48
25510;BME280;13413;52.336;21.200;2023-01-29T03:32:31;101221.86;;;2.85;57.30
25510;BME280;13413;52.336;21.200;2023-01-29T03:35:27;101224.20;;;2.86;57.26
25510;BME280;13413;52.336;21.200;2023-01-29T03:38:22;101224.09;;;2.83;57.02
25510;BME280;13413;52.336;21.200;2023-01-29T03:41:24;101221.60;;;2.81;57.14
25510;BME280;13413;52.336;21.200;2023-01-29T03:44:29;101220.68;;;2.79;57.30
25510;BME280;13413;52.336;21.200;2023-01-29T03:47:35;101221.80;;;2.83;57.61
25510;BME280;13413;52.336;21.200;2023-01-29T03:50:37;101215.02;;;2.82;57.53
25510;BME280;13413;52.336;21.200;2023-01-29T03:53:36;101215.50;;;2.80;57.44
25510;BME280;13413;52.336;21.200;2023-01-29T04:01:23;101209.02;;;2.84;57.42
25510;BME280;13413;52.336;21.200;2023-01-29T04:04:23;101204.53;;;2.86;57.70
25510;BME280;13413;52.336;21.200;2023-01-29T04:07:19;101204.53;;;2.88;57.72
25510;BME280;13413;52.336;21.200;2023-01-29T04:13:11;101206.57;;;2.91;57.69
25510;BME280;13413;52.336;21.200;2023-01-29T04:16:11;101207.83;;;2.88;57.44
25510;BME280;13413;52.336;21.200;2023-01-29T04:19:07;101208.37;;;2.88;57.59
25510;BME280;13413;52.336;21.200;2023-01-29T04:22:05;101197.18;;;2.86;57.50
25510;BME280;13413;52.336;21.200;2023-01-29T04:25:01;101193.79;;;2.89;57.58
25510;BME280;13413;52.336;21.200;2023-01-29T04:28:05;101190.71;;;2.88;57.64
25510;BME280;13413;52.336;21.200;2023-01-29T04:31:03;101184.86;;;2.87;57.53
25510;BME280;13413;52.336;21.200;2023-01-29T04:34:10;101187.73;;;2.84;57.34
25510;BME280;13413;52.336;21.200;2023-01-29T04:37:14;101184.84;;;2.87;57.55
25510;BME280;13413;52.336;21.200;2023-01-29T04:40:20;101173.62;;;2.88;57.66
25510;BME280;13413;52.336;21.200;2023-01-29T04:43:23;101168.68;;;2.88;57.87
25510;BME280;13413;52.336;21.200;2023-01-29T04:46:24;101167.40;;;2.87;57.81
25510;BME280;13413;52.336;21.200;2023-01-29T04:49:28;101168.84;;;2.86;57.73
25510;BME280;13413;52.336;21.200;2023-01-29T04:52:27;101164.02;;;2.88;57.61
25510;BME280;13413;52.336;21.200;2023-01-29T04:55:31;101169.19;;;2.91;57.91
25510;BME280;13413;52.336;21.200;2023-01-29T04:58:31;101165.46;;;2.90;57.80
25510;BME280;13413;52.336;21.200;2023-01-29T05:01:29;101166.30;;;2.88;57.62
25510;BME280;13413;52.336;21.200;2023-01-29T05:04:24;101171.95;;;2.87;57.83
25510;BME280;13413;52.336;21.200;2023-01-29T05:07:20;101171.17;;;2.88;58.05
25510;BME280;13413;52.336;21.200;2023-01-29T05:10:16;101167.75;;;2.90;57.70
25510;BME280;13413;52.336;21.200;2023-01-29T05:13:12;101173.36;;;2.87;57.91
25510;BME280;13413;52.336;21.200;2023-01-29T05:16:12;101172.67;;;2.89;57.63
25510;BME280;13413;52.336;21.200;2023-01-29T05:19:08;101172.55;;;2.91;57.70
25510;BME280;13413;52.336;21.200;2023-01-29T05:22:05;101167.70;;;2.90;58.01
25510;BME280;13413;52.336;21.200;2023-01-29T05:25:02;101163.55;;;2.89;57.55
25510;BME280;13413;52.336;21.200;2023-01-29T05:27:56;101160.41;;;2.95;57.84
25510;BME280;13413;52.336;21.200;2023-01-29T05:30:51;101156.60;;;2.96;57.58
25510;BME280;13413;52.336;21.200;2023-01-29T05:33:46;101153.98;;;2.99;57.90
25510;BME280;13413;52.336;21.200;2023-01-29T05:36:39;101152.68;;;2.97;57.58
25510;BME280;13413;52.336;21.200;2023-01-29T05:39:33;101141.52;;;2.95;57.75
25510;BME280;13413;52.336;21.200;2023-01-29T05:42:27;101130.64;;;2.91;57.60
25510;BME280;13413;52.336;21.200;2023-01-29T05:45:22;101131.08;;;2.89;57.51
25510;BME280;13413;52.336;21.200;2023-01-29T05:48:16;101137.11;;;2.95;57.41
25510;BME280;13413;52.336;21.200;2023-01-29T05:51:10;101131.00;;;2.97;57.58
25510;BME280;13413;52.336;21.200;2023-01-29T05:54:04;101128.28;;;2.97;57.61
25510;BME280;13413;52.336;21.200;2023-01-29T05:56:57;101127.02;;;2.95;57.59
25510;BME280;13413;52.336;21.200;2023-01-29T05:59:51;101123.81;;;2.93;57.81
25510;BME280;13413;52.336;21.200;2023-01-29T06:02:44;101123.48;;;2.95;57.81
25510;BME280;13413;52.336;21.200;2023-01-29T06:05:39;101133.27;;;3.00;57.75
25510;BME280;13413;52.336;21.200;2023-01-29T06:08:34;101135.71;;;2.95;57.61
25510;BME280;13413;52.336;21.200;2023-01-29T06:11:26;101135.46;;;2.99;57.60
25510;BME280;13413;52.336;21.200;2023-01-29T06:14:18;101137.20;;;3.01;57.70
25510;BME280;13413;52.336;21.200;2023-01-29T06:21:20;101138.73;;;3.07;57.45
25510;BME280;13413;52.336;21.200;2023-01-29T06:24:14;101139.80;;;3.06;57.56
25510;BME280;13413;52.336;21.200;2023-01-29T06:27:10;101145.16;;;3.07;57.62
25510;BME280;13413;52.336;21.200;2023-01-29T06:30:04;101146.44;;;3.06;57.46
25510;BME280;13413;52.336;21.200;2023-01-29T06:32:59;101140.19;;;2.99;57.54
25510;BME280;13413;52.336;21.200;2023-01-29T06:35:55;101136.55;;;3.00;57.45
25510;BME280;13413;52.336;21.200;2023-01-29T06:38:50;101135.33;;;3.05;57.63
25510;BME280;13413;52.336;21.200;2023-01-29T06:41:44;101138.56;;;3.04;57.40
25510;BME280;13413;52.336;21.200;2023-01-29T06:44:38;101134.37;;;3.04;57.45
25510;BME280;13413;52.336;21.200;2023-01-29T06:47:32;101131.61;;;3.06;57.87
25510;BME280;13413;52.336;21.200;2023-01-29T06:50:26;101135.09;;;3.04;57.47
25510;BME280;13413;52.336;21.200;2023-01-29T06:53:21;101132.64;;;3.06;57.75
25510;BME280;13413;52.336;21.200;2023-01-29T06:56:15;101134.78;;;3.11;57.85
25510;BME280;13413;52.336;21.200;2023-01-29T06:59:10;101140.98;;;3.09;57.65
25510;BME280;13413;52.336;21.200;2023-01-29T07:02:05;101139.33;;;3.11;57.56
25510;BME280;13413;52.336;21.200;2023-01-29T07:04:59;101138.29;;;3.15;57.40
25510;BME280;13413;52.336;21.200;2023-01-29T07:07:53;101132.48;;;3.14;57.52
25510;BME280;13413;52.336;21.200;2023-01-29T07:10:48;101123.22;;;3.08;57.43
25510;BME280;13413;52.336;21.200;2023-01-29T07:13:42;101111.80;;;3.10;57.79
25510;BME280;13413;52.336;21.200;2023-01-29T07:16:35;101111.93;;;3.10;57.67
25510;BME280;13413;52.336;21.200;2023-01-29T07:19:30;101113.77;;;3.11;57.66
25510;BME280;13413;52.336;21.200;2023-01-29T07:22:23;101115.56;;;3.13;57.53
25510;BME280;13413;52.336;21.200;2023-01-29T07:25:31;101121.05;;;3.19;57.39
25510;BME280;13413;52.336;21.200;2023-01-29T07:28:25;101119.20;;;3.21;57.50
25510;BME280;13413;52.336;21.200;2023-01-29T07:31:19;101123.06;;;3.18;57.52
25510;BME280;13413;52.336;21.200;2023-01-29T07:34:14;101131.84;;;3.25;57.61
25510;BME280;13413;52.336;21.200;2023-01-29T07:37:09;101132.52;;;3.20;57.46
25510;BME280;13413;52.336;21.200;2023-01-29T07:40:06;101137.97;;;3.20;57.28
25510;BME280;13413;52.336;21.200;2023-01-29T07:43:00;101137.45;;;3.24;57.53
25510;BME280;13413;52.336;21.200;2023-01-29T07:45:55;101139.23;;;3.17;57.38
25510;BME280;13413;52.336;21.200;2023-01-29T07:48:53;101140.76;;;3.15;57.32
25510;BME280;13413;52.336;21.200;2023-01-29T07:51:47;101127.92;;;3.11;57.38
25510;BME280;13413;52.336;21.200;2023-01-29T07:54:41;101125.89;;;3.15;57.44
25510;BME280;13413;52.336;21.200;2023-01-29T07:57:35;101118.60;;;3.22;57.41
25510;BME280;13413;52.336;21.200;2023-01-29T08:00:30;101117.79;;;3.23;57.22
25510;BME280;13413;52.336;21.200;2023-01-29T08:03:27;101120.87;;;3.24;57.06
25510;BME280;13413;52.336;21.200;2023-01-29T08:06:21;101117.75;;;3.31;57.10
25510;BME280;13413;52.336;21.200;2023-01-29T08:09:15;101120.42;;;3.33;57.18
25510;BME280;13413;52.336;21.200;2023-01-29T08:12:09;101118.84;;;3.36;57.18
25510;BME280;13413;52.336;21.200;2023-01-29T08:15:03;101114.04;;;3.39;57.13
25510;BME280;13413;52.336;21.200;2023-01-29T08:17:56;101105.18;;;3.40;57.08
25510;BME280;13413;52.336;21.200;2023-01-29T08:20:50;101102.86;;;3.39;57.32
25510;BME280;13413;52.336;21.200;2023-01-29T08:23:44;101098.17;;;3.43;57.13
25510;BME280;13413;52.336;21.200;2023-01-29T08:26:38;101094.27;;;3.44;57.09
25510;BME280;13413;52.336;21.200;2023-01-29T08:29:32;101096.67;;;3.45;56.86
25510;BME280;13413;52.336;21.200;2023-01-29T08:32:27;101101.98;;;3.46;57.11
25510;BME280;13413;52.336;21.200;2023-01-29T08:41:25;101111.19;;;3.49;57.13
25510;BME280;13413;52.336;21.200;2023-01-29T08:44:19;101104.95;;;3.56;57.11
25510;BME280;13413;52.336;21.200;2023-01-29T08:47:13;101102.81;;;3.61;57.22
25510;BME280;13413;52.336;21.200;2023-01-29T08:50:10;101093.66;;;3.57;56.91
25510;BME280;13413;52.336;21.200;2023-01-29T08:53:06;101093.70;;;3.49;57.18
25510;BME280;13413;52.336;21.200;2023-01-29T08:56:01;101093.66;;;3.45;57.31
25510;BME280;13413;52.336;21.200;2023-01-29T08:58:55;101095.93;;;3.36;57.27
25510;BME280;13413;52.336;21.200;2023-01-29T09:01:49;101088.88;;;3.44;57.54
25510;BME280;13413;52.336;21.200;2023-01-29T09:04:43;101081.96;;;3.43;57.32
25510;BME280;13413;52.336;21.200;2023-01-29T09:07:40;101074.67;;;3.47;57.46
25510;BME280;13413;52.336;21.200;2023-01-29T09:13:28;101072.61;;;3.53;57.05
25510;BME280;13413;52.336;21.200;2023-01-29T09:16:22;101071.49;;;3.59;57.41
25510;BME280;13413;52.336;21.200;2023-01-29T09:19:16;101067.98;;;3.63;57.07
25510;BME280;13413;52.336;21.200;2023-01-29T09:22:10;101065.45;;;3.53;57.50
25510;BME280;13413;52.336;21.200;2023-01-29T09:25:06;101066.23;;;3.61;57.44
25510;BME280;13413;52.336;21.200;2023-01-29T09:28:00;101072.52;;;3.59;57.65
25510;BME280;13413;52.336;21.200;2023-01-29T09:30:54;101068.14;;;3.55;57.69
25510;BME280;13413;52.336;21.200;2023-01-29T09:33:48;101065.58;;;3.49;57.92
25510;BME280;13413;52.336;21.200;2023-01-29T09:36:42;101060.25;;;3.50;58.20
25510;BME280;13413;52.336;21.200;2023-01-29T09:39:37;101055.80;;;3.46;58.56
25510;BME280;13413;52.336;21.200;2023-01-29T09:42:39;101058.73;;;3.47;58.88
25510;BME280;13413;52.336;21.200;2023-01-29T09:45:44;101049.08;;;3.45;58.89
25510;BME280;13413;52.336;21.200;2023-01-29T09:48:58;101042.91;;;3.50;58.91
25510;BME280;13413;52.336;21.200;2023-01-29T09:51:59;101044.16;;;3.50;59.03
25510;BME280;13413;52.336;21.200;2023-01-29T09:55:02;101040.30;;;3.43;59.18
25510;BME280;13413;52.336;21.200;2023-01-29T09:57:58;101034.77;;;3.52;59.52
25510;BME280;13413;52.336;21.200;2023-01-29T10:00:59;101041.82;;;3.56;59.35
25510;BME280;13413;52.336;21.200;2023-01-29T10:04:31;101034.22;;;3.50;59.88
25510;BME280;13413;52.336;21.200;2023-01-29T10:07:57;101029.28;;;3.55;59.74
25510;BME280;13413;52.336;21.200;2023-01-29T10:10:56;101026.85;;;3.57;59.73
25510;BME280;13413;52.336;21.200;2023-01-29T10:14:01;101026.44;;;3.56;59.95
25510;BME280;13413;52.336;21.200;2023-01-29T10:17:22;101016.25;;;3.47;60.02
25510;BME280;13413;52.336;21.200;2023-01-29T10:20:37;101016.83;;;3.49;60.19
25510;BME280;13413;52.336;21.200;2023-01-29T10:23:34;101014.70;;;3.49;60.26
25510;BME280;13413;52.336;21.200;2023-01-29T10:26:30;101013.23;;;3.45;60.76
25510;BME280;13413;52.336;21.200;2023-01-29T10:29:23;101010.42;;;3.54;60.67
25510;BME280;13413;52.336;21.200;2023-01-29T10:32:22;101009.95;;;3.52;60.51
25510;BME280;13413;52.336;21.200;2023-01-29T10:35:23;101011.69;;;3.47;60.77
25510;BME280;13413;52.336;21.200;2023-01-29T10:38:33;101007.93;;;3.48;60.81
25510;BME280;13413;52.336;21.200;2023-01-29T10:41:46;101008.51;;;3.57;60.79
25510;BME280;13413;52.336;21.200;2023-01-29T10:44:54;101007.99;;;3.61;60.76
25510;BME280;13413;52.336;21.200;2023-01-29T10:48:24;101012.57;;;3.68;60.67
25510;BME280;13413;52.336;21.200;2023-01-29T10:51:28;101011.80;;;3.66;60.79
25510;BME280;13413;52.336;21.200;2023-01-29T11:00:50;100998.63;;;3.72;60.47
25510;BME280;13413;52.336;21.200;2023-01-29T11:03:45;100994.75;;;3.61;60.58
25510;BME280;13413;52.336;21.200;2023-01-29T11:06:49;100992.69;;;3.55;60.75
25510;BME280;13413;52.336;21.200;2023-01-29T11:09:49;100984.09;;;3.65;60.70
25510;BME280;13413;52.336;21.200;2023-01-29T11:12:47;100975.25;;;3.69;60.68
25510;BME280;13413;52.336;21.200;2023-01-29T11:15:41;100967.39;;;3.64;60.76
25510;BME280;13413;52.336;21.200;2023-01-29T11:21:51;100958.40;;;3.72;60.72
25510;BME280;13413;52.336;21.200;2023-01-29T11:24:46;100946.86;;;3.72;60.91
25510;BME280;13413;52.336;21.200;2023-01-29T11:27:44;100937.55;;;3.75;60.85
25510;BME280;13413;52.336;21.200;2023-01-29T11:30:40;100936.11;;;3.70;60.99
25510;BME280;13413;52.336;21.200;2023-01-29T11:33:34;100927.66;;;3.73;60.87
25510;BME280;13413;52.336;21.200;2023-01-29T11:36:35;100919.27;;;3.69;60.86
25510;BME280;13413;52.336;21.200;2023-01-29T11:39:33;100909.91;;;3.72;60.99
25510;BME280;13413;52.336;21.200;2023-01-29T11:42:31;100905.26;;;3.69;61.06
25510;BME280;13413;52.336;21.200;2023-01-29T11:45:28;100901.47;;;3.70;61.00
25510;BME280;13413;52.336;21.200;2023-01-29T11:48:25;100900.48;;;3.84;61.13
25510;BME280;13413;52.336;21.200;2023-01-29T11:51:24;100896.77;;;3.88;60.72
25510;BME280;13413;52.336;21.200;2023-01-29T11:54:26;100897.01;;;3.86;60.90
25510;BME280;13413;52.336;21.200;2023-01-29T11:57:28;100891.78;;;3.85;60.91
25510;BME280;13413;52.336;21.200;2023-01-29T12:00:25;100882.63;;;3.86;60.78
25510;BME280;13413;52.336;21.200;2023-01-29T12:03:22;100884.08;;;3.79;60.87
25510;BME280;13413;52.336;21.200;2023-01-29T12:06:19;100877.74;;;3.70;61.08
25510;BME280;13413;52.336;21.200;2023-01-29T12:09:18;100871.55;;;3.68;61.02
25510;BME280;13413;52.336;21.200;2023-01-29T12:12:28;100872.61;;;3.62;61.44
25510;BME280;13413;52.336;21.200;2023-01-29T12:15:23;100866.05;;;3.67;61.33
25510;BME280;13413;52.336;21.200;2023-01-29T12:18:24;100858.49;;;3.72;61.35
25510;BME280;13413;52.336;21.200;2023-01-29T12:21:26;100853.93;;;3.79;61.27
25510;BME280;13413;52.336;21.200;2023-01-29T12:24:31;100847.90;;;3.74;61.29
25510;BME280;13413;52.336;21.200;2023-01-29T12:27:28;100852.41;;;3.70;61.39
25510;BME280;13413;52.336;21.200;2023-01-29T12:30:28;100846.31;;;3.69;61.43
25510;BME280;13413;52.336;21.200;2023-01-29T12:33:32;100833.95;;;3.77;61.58
25510;BME280;13413;52.336;21.200;2023-01-29T12:36:35;100836.77;;;3.80;61.44
25510;BME280;13413;52.336;21.200;2023-01-29T12:39:30;100839.84;;;3.76;61.64
25510;BME280;13413;52.336;21.200;2023-01-29T12:42:24;100825.15;;;3.65;61.80
25510;BME280;13413;52.336;21.200;2023-01-29T12:45:18;100832.14;;;3.65;62.05
25510;BME280;13413;52.336;21.200;2023-01-29T12:48:17;100832.23;;;3.64;61.86
25510;BME280;13413;52.336;21.200;2023-01-29T12:51:16;100815.61;;;3.66;61.77
25510;BME280;13413;52.336;21.200;2023-01-29T12:54:15;100811.48;;;3.72;61.84
25510;BME280;13413;52.336;21.200;2023-01-29T12:57:19;100808.14;;;3.72;61.78
25510;BME280;13413;52.336;21.200;2023-01-29T13:00:21;100806.13;;;3.75;61.96
25510;BME280;13413;52.336;21.200;2023-01-29T13:03:21;100810.39;;;3.70;61.98
25510;BME280;13413;52.336;21.200;2023-01-29T13:06:19;100811.77;;;3.66;62.25
25510;BME280;13413;52.336;21.200;2023-01-29T13:09:19;100818.69;;;3.65;62.07
25510;BME280;13413;52.336;21.200;2023-01-29T13:12:16;100822.42;;;3.73;62.09
25510;BME280;13413;52.336;21.200;2023-01-29T13:18:43;100828.20;;;3.57;62.51
25510;BME280;13413;52.336;21.200;2023-01-29T13:21:38;100823.08;;;3.62;62.63
25510;BME280;13413;52.336;21.200;2023-01-29T13:24:36;100822.79;;;3.70;62.56
25510;BME280;13413;52.336;21.200;2023-01-29T13:27:33;100815.98;;;3.70;62.51
25510;BME280;13413;52.336;21.200;2023-01-29T13:30:30;100815.88;;;3.65;63.05
25510;BME280;13413;52.336;21.200;2023-01-29T13:33:24;100821.83;;;3.67;62.96
25510;BME280;13413;52.336;21.200;2023-01-29T13:41:54;100810.51;;;3.71;63.61
25510;BME280;13413;52.336;21.200;2023-01-29T13:44:51;100801.02;;;3.67;63.61
25510;BME280;13413;52.336;21.200;2023-01-29T13:47:46;100784.98;;;3.64;63.84
25510;BME280;13413;52.336;21.200;2023-01-29T13:50:43;100783.87;;;3.67;63.64
25510;BME280;13413;52.336;21.200;2023-01-29T13:53:41;100788.19;;;3.70;63.75
25510;BME280;13413;52.336;21.200;2023-01-29T13:56:55;100786.75;;;3.77;63.37
25510;BME280;13413;52.336;21.200;2023-01-29T13:59:52;100790.66;;;3.79;63.58
25510;BME280;13413;52.336;21.200;2023-01-29T14:02:46;100790.46;;;3.79;63.45
25510;BME280;13413;52.336;21.200;2023-01-29T14:05:42;100795.12;;;3.78;63.52
25510;BME280;13413;52.336;21.200;2023-01-29T14:08:42;100795.30;;;3.78;63.56
25510;BME280;13413;52.336;21.200;2023-01-29T14:11:42;100796.30;;;3.78;63.41
25510;BME280;13413;52.336;21.200;2023-01-29T14:15:02;100802.98;;;3.75;63.78
25510;BME280;13413;52.336;21.200;2023-01-29T14:21:10;100824.48;;;3.67;64.05
25510;BME280;13413;52.336;21.200;2023-01-29T14:24:17;100823.67;;;3.66;64.18
25510;BME280;13413;52.336;21.200;2023-01-29T14:27:20;100830.59;;;3.67;64.32
25510;BME280;13413;52.336;21.200;2023-01-29T14:30:17;100823.71;;;3.74;63.91
25510;BME280;13413;52.336;21.200;2023-01-29T14:33:27;100808.39;;;3.73;64.00
25510;BME280;13413;52.336;21.200;2023-01-29T14:36:26;100801.06;;;3.69;64.12
25510;BME280;13413;52.336;21.200;2023-01-29T14:39:30;100797.19;;;3.76;64.06
25510;BME280;13413;52.336;21.200;2023-01-29T14:42:28;100787.54;;;3.74;64.16
25510;BME280;13413;52.336;21.200;2023-01-29T14:45:28;100779.85;;;3.73;64.11
25510;BME280;13413;52.336;21.200;2023-01-29T14:48:44;100780.45;;;3.70;64.48
25510;BME280;13413;52.336;21.200;2023-01-29T14:51:42;100776.20;;;3.60;64.54
25510;BME280;13413;52.336;21.200;2023-01-29T14:54:37;100770.17;;;3.55;65.03
25510;BME280;13413;52.336;21.200;2023-01-29T14:57:33;100774.14;;;3.64;64.42
25510;BME280;13413;52.336;21.200;2023-01-29T15:00:32;100786.08;;;3.70;64.61
25510;BME280;13413;52.336;21.200;2023-01-29T15:06:35;100783.54;;;3.65;64.99
25510;BME280;13413;52.336;21.200;2023-01-29T15:09:41;100779.25;;;3.53;65.14
25510;BME280;13413;52.336;21.200;2023-01-29T15:12:44;100768.05;;;3.55;65.29
25510;BME280;13413;52.336;21.200;2023-01-29T15:15:45;100758.77;;;3.53;65.24
25510;BME280;13413;52.336;21.200;2023-01-29T15:18:42;100759.27;;;3.46;65.47
25510;BME280;13413;52.336;21.200;2023-01-29T15:21:36;100760.20;;;3.50;65.41
25510;BME280;13413;52.336;21.200;2023-01-29T15:24:30;100753.15;;;3.55;65.59
25510;BME280;13413;52.336;21.200;2023-01-29T15:27:25;100760.76;;;3.57;65.54
25510;BME280;13413;52.336;21.200;2023-01-29T15:30:24;100754.95;;;3.52;65.63
25510;BME280;13413;52.336;21.200;2023-01-29T15:33:19;100744.30;;;3.52;65.59
25510;BME280;13413;52.336;21.200;2023-01-29T15:36:19;100747.19;;;3.56;65.62
25510;BME280;13413;52.336;21.200;2023-01-29T15:39:20;100739.28;;;3.54;65.60
25510;BME280;13413;52.336;21.200;2023-01-29T15:42:15;100737.55;;;3.56;65.70
25510;BME280;13413;52.336;21.200;2023-01-29T15:45:18;100737.11;;;3.61;65.63
25510;BME280;13413;52.336;21.200;2023-01-29T15:48:17;100745.31;;;3.62;65.58
25510;BME280;13413;52.336;21.200;2023-01-29T15:51:16;100745.30;;;3.60;65.76
25510;BME280;13413;52.336;21.200;2023-01-29T15:54:10;100740.23;;;3.53;66.08
25510;BME280;13413;52.336;21.200;2023-01-29T16:01:13;100732.59;;;3.54;66.14
25510;BME280;13413;52.336;21.200;2023-01-29T16:04:12;100735.24;;;3.59;65.95
25510;BME280;13413;52.336;21.200;2023-01-29T16:07:08;100741.55;;;3.65;65.81
25510;BME280;13413;52.336;21.200;2023-01-29T16:10:05;100738.27;;;3.66;65.68
25510;BME280;13413;52.336;21.200;2023-01-29T16:13:01;100738.95;;;3.69;65.77
25510;BME280;13413;52.336;21.200;2023-01-29T16:15:57;100739.04;;;3.68;65.70
25510;BME280;13413;52.336;21.200;2023-01-29T16:18:52;100739.86;;;3.75;65.65
25510;BME280;13413;52.336;21.200;2023-01-29T16:21:47;100744.70;;;3.78;65.62
25510;BME280;13413;52.336;21.200;2023-01-29T16:24:45;100744.99;;;3.74;65.63
25510;BME280;13413;52.336;21.200;2023-01-29T16:27:38;100744.20;;;3.76;65.56
25510;BME280;13413;52.336;21.200;2023-01-29T16:30:33;100743.34;;;3.78;65.74